sensor_id;sensor_type;location;lat;lon;timestamp;P1;durP1;ratioP1;P2;durP2;ratioP2
43098;SDS011;28715;51.988;6.020;2022-10-31T00:00:47;32.53;;;17.90;;
43098;SDS011;28715;51.988;6.020;2022-10-31T00:03:13;33.50;;;18.90;;
43098;SDS011;28715;51.988;6.020;2022-10-31T00:05:40;28.10;;;17.23;;
43098;SDS011;28715;51.988;6.020;2022-10-31T00:08:10;27.80;;;17.50;;
43098;SDS011;28715;51.988;6.020;2022-10-31T00:10:39;27.13;;;15.70;;
43098;SDS011;28715;51.988;6.020;2022-10-31T00:13:05;25.50;;;14.68;;
43098;SDS011;28715;51.988;6.020;2022-10-31T00:15:32;27.42;;;16.88;;
43098;SDS011;28715;51.988;6.020;2022-10-31T00:17:59;28.52;;;16.05;;
43098;SDS011;28715;51.988;6.020;2022-10-31T00:20:24;29.03;;;16.80;;
43098;SDS011;28715;51.988;6.020;2022-10-31T00:22:50;29.23;;;17.23;;
43098;SDS011;28715;51.988;6.020;2022-10-31T00:25:15;30.83;;;18.80;;
43098;SDS011;28715;51.988;6.020;2022-10-31T00:27:41;29.27;;;16.90;;
43098;SDS011;28715;51.988;6.020;2022-10-31T00:30:06;36.73;;;19.13;;
43098;SDS011;28715;51.988;6.020;2022-10-31T00:32:32;33.70;;;20.83;;
43098;SDS011;28715;51.988;6.020;2022-10-31T00:34:58;36.90;;;20.80;;
43098;SDS011;28715;51.988;6.020;2022-10-31T00:37:23;31.63;;;18.87;;
43098;SDS011;28715;51.988;6.020;2022-10-31T00:39:49;34.17;;;19.10;;
43098;SDS011;28715;51.988;6.020;2022-10-31T00:42:14;34.93;;;20.70;;
43098;SDS011;28715;51.988;6.020;2022-10-31T00:44:40;28.90;;;17.80;;
43098;SDS011;28715;51.988;6.020;2022-10-31T00:47:06;34.57;;;19.00;;
43098;SDS011;28715;51.988;6.020;2022-10-31T00:49:31;30.73;;;18.70;;
43098;SDS011;28715;51.988;6.020;2022-10-31T00:51:57;40.53;;;20.73;;
43098;SDS011;28715;51.988;6.020;2022-10-31T00:54:22;37.40;;;18.77;;
43098;SDS011;28715;51.988;6.020;2022-10-31T00:56:48;31.90;;;18.33;;
43098;SDS011;28715;51.988;6.020;2022-10-31T00:59:14;37.53;;;22.02;;
43098;SDS011;28715;51.988;6.020;2022-10-31T01:01:40;44.20;;;24.43;;
43098;SDS011;28715;51.988;6.020;2022-10-31T01:04:05;39.17;;;20.10;;
43098;SDS011;28715;51.988;6.020;2022-10-31T01:06:31;40.47;;;20.40;;
43098;SDS011;28715;51.988;6.020;2022-10-31T01:08:56;28.67;;;15.33;;
43098;SDS011;28715;51.988;6.020;2022-10-31T01:11:22;19.50;;;12.80;;
43098;SDS011;28715;51.988;6.020;2022-10-31T01:13:52;18.05;;;12.45;;
43098;SDS011;28715;51.988;6.020;2022-10-31T01:16:20;18.90;;;11.57;;
43098;SDS011;28715;51.988;6.020;2022-10-31T01:18:47;24.15;;;14.60;;
43098;SDS011;28715;51.988;6.020;2022-10-31T01:21:20;24.67;;;15.80;;
43098;SDS011;28715;51.988;6.020;2022-10-31T01:23:50;24.52;;;14.25;;
43098;SDS011;28715;51.988;6.020;2022-10-31T01:26:26;46.88;;;21.10;;
43098;SDS011;28715;51.988;6.020;2022-10-31T01:28:55;58.75;;;19.98;;
43098;SDS011;28715;51.988;6.020;2022-10-31T01:31:24;47.25;;;23.17;;
43098;SDS011;28715;51.988;6.020;2022-10-31T01:33:51;39.20;;;21.17;;
43098;SDS011;28715;51.988;6.020;2022-10-31T01:38:46;33.80;;;20.92;;
43098;SDS011;28715;51.988;6.020;2022-10-31T01:41:13;34.13;;;20.80;;
43098;SDS011;28715;51.988;6.020;2022-10-31T01:43:46;32.17;;;19.65;;
43098;SDS011;28715;51.988;6.020;2022-10-31T01:46:12;30.75;;;19.20;;
43098;SDS011;28715;51.988;6.020;2022-10-31T01:48:40;33.67;;;21.00;;
43098;SDS011;28715;51.988;6.020;2022-10-31T01:51:06;35.55;;;20.55;;
43098;SDS011;28715;51.988;6.020;2022-10-31T01:53:35;27.27;;;15.93;;
43098;SDS011;28715;51.988;6.020;2022-10-31T01:56:01;17.77;;;11.33;;
43098;SDS011;28715;51.988;6.020;2022-10-31T01:58:28;18.70;;;10.83;;
43098;SDS011;28715;51.988;6.020;2022-10-31T02:00:57;20.13;;;13.93;;
43098;SDS011;28715;51.988;6.020;2022-10-31T02:03:24;22.00;;;13.45;;
43098;SDS011;28715;51.988;6.020;2022-10-31T02:05:51;26.13;;;15.43;;
43098;SDS011;28715;51.988;6.020;2022-10-31T02:10:52;32.03;;;18.35;;
43098;SDS011;28715;51.988;6.020;2022-10-31T02:13:18;31.35;;;19.27;;
43098;SDS011;28715;51.988;6.020;2022-10-31T02:15:47;29.75;;;17.13;;
43098;SDS011;28715;51.988;6.020;2022-10-31T02:18:17;27.77;;;17.15;;
43098;SDS011;28715;51.988;6.020;2022-10-31T02:20:56;26.38;;;16.42;;
43098;SDS011;28715;51.988;6.020;2022-10-31T02:28:59;78.17;;;15.00;;
43098;SDS011;28715;51.988;6.020;2022-10-31T02:31:49;69.15;;;18.38;;
43098;SDS011;28715;51.988;6.020;2022-10-31T02:34:22;34.22;;;15.43;;
43098;SDS011;28715;51.988;6.020;2022-10-31T02:37:14;32.58;;;18.23;;
43098;SDS011;28715;51.988;6.020;2022-10-31T02:39:50;30.05;;;18.10;;
43098;SDS011;28715;51.988;6.020;2022-10-31T02:42:30;32.88;;;19.63;;
43098;SDS011;28715;51.988;6.020;2022-10-31T02:45:23;43.38;;;21.50;;
43098;SDS011;28715;51.988;6.020;2022-10-31T02:48:08;29.08;;;17.95;;
43098;SDS011;28715;51.988;6.020;2022-10-31T02:50:38;32.25;;;18.05;;
43098;SDS011;28715;51.988;6.020;2022-10-31T02:53:07;30.90;;;19.50;;
43098;SDS011;28715;51.988;6.020;2022-10-31T03:00:27;28.48;;;17.20;;
43098;SDS011;28715;51.988;6.020;2022-10-31T03:03:12;23.42;;;13.80;;
43098;SDS011;28715;51.988;6.020;2022-10-31T03:06:00;36.55;;;15.52;;
43098;SDS011;28715;51.988;6.020;2022-10-31T03:11:14;47.53;;;15.90;;
43098;SDS011;28715;51.988;6.020;2022-10-31T03:13:52;62.53;;;18.55;;
43098;SDS011;28715;51.988;6.020;2022-10-31T03:19:16;88.00;;;25.25;;
43098;SDS011;28715;51.988;6.020;2022-10-31T03:24:26;33.65;;;18.98;;
43098;SDS011;28715;51.988;6.020;2022-10-31T03:26:55;38.17;;;21.15;;
43098;SDS011;28715;51.988;6.020;2022-10-31T03:29:24;43.17;;;22.73;;
43098;SDS011;28715;51.988;6.020;2022-10-31T03:34:40;45.78;;;24.25;;
43098;SDS011;28715;51.988;6.020;2022-10-31T03:37:08;47.97;;;25.80;;
43098;SDS011;28715;51.988;6.020;2022-10-31T03:39:38;48.33;;;25.15;;
43098;SDS011;28715;51.988;6.020;2022-10-31T03:42:09;64.38;;;27.58;;
43098;SDS011;28715;51.988;6.020;2022-10-31T03:44:37;52.50;;;27.08;;
43098;SDS011;28715;51.988;6.020;2022-10-31T03:47:04;48.72;;;26.50;;
43098;SDS011;28715;51.988;6.020;2022-10-31T03:49:29;53.50;;;27.50;;
43098;SDS011;28715;51.988;6.020;2022-10-31T03:52:02;54.42;;;26.70;;
43098;SDS011;28715;51.988;6.020;2022-10-31T03:54:42;46.78;;;24.08;;
43098;SDS011;28715;51.988;6.020;2022-10-31T03:57:16;45.05;;;23.30;;
43098;SDS011;28715;51.988;6.020;2022-10-31T03:59:59;53.50;;;26.08;;
43098;SDS011;28715;51.988;6.020;2022-10-31T04:02:34;41.45;;;22.98;;
43098;SDS011;28715;51.988;6.020;2022-10-31T04:05:04;51.58;;;24.73;;
43098;SDS011;28715;51.988;6.020;2022-10-31T04:07:33;40.03;;;22.92;;
43098;SDS011;28715;51.988;6.020;2022-10-31T04:10:07;38.35;;;22.60;;
43098;SDS011;28715;51.988;6.020;2022-10-31T04:12:34;33.97;;;19.80;;
43098;SDS011;28715;51.988;6.020;2022-10-31T04:15:03;47.75;;;23.52;;
43098;SDS011;28715;51.988;6.020;2022-10-31T04:17:31;72.43;;;23.40;;
43098;SDS011;28715;51.988;6.020;2022-10-31T04:19:59;60.60;;;24.00;;
43098;SDS011;28715;51.988;6.020;2022-10-31T04:22:26;54.53;;;24.85;;
43098;SDS011;28715;51.988;6.020;2022-10-31T04:24:51;48.93;;;24.07;;
43098;SDS011;28715;51.988;6.020;2022-10-31T04:27:17;52.87;;;25.97;;
43098;SDS011;28715;51.988;6.020;2022-10-31T04:29:42;56.37;;;27.93;;
43098;SDS011;28715;51.988;6.020;2022-10-31T04:32:08;64.53;;;29.50;;
43098;SDS011;28715;51.988;6.020;2022-10-31T04:34:33;62.90;;;31.10;;
43098;SDS011;28715;51.988;6.020;2022-10-31T04:36:59;63.37;;;32.67;;
43098;SDS011;28715;51.988;6.020;2022-10-31T04:39:24;63.83;;;31.67;;
43098;SDS011;28715;51.988;6.020;2022-10-31T04:41:50;61.00;;;30.73;;
43098;SDS011;28715;51.988;6.020;2022-10-31T04:44:15;64.97;;;32.80;;
43098;SDS011;28715;51.988;6.020;2022-10-31T04:46:41;70.73;;;33.03;;
43098;SDS011;28715;51.988;6.020;2022-10-31T04:49:07;73.57;;;33.73;;
43098;SDS011;28715;51.988;6.020;2022-10-31T04:51:32;62.80;;;31.83;;
43098;SDS011;28715;51.988;6.020;2022-10-31T04:53:58;77.20;;;35.40;;
43098;SDS011;28715;51.988;6.020;2022-10-31T04:56:23;76.77;;;35.87;;
43098;SDS011;28715;51.988;6.020;2022-10-31T04:58:49;66.43;;;32.07;;
43098;SDS011;28715;51.988;6.020;2022-10-31T05:01:14;63.33;;;30.40;;
43098;SDS011;28715;51.988;6.020;2022-10-31T05:03:40;65.97;;;32.07;;
43098;SDS011;28715;51.988;6.020;2022-10-31T05:06:06;61.07;;;30.80;;
43098;SDS011;28715;51.988;6.020;2022-10-31T05:08:32;61.22;;;32.50;;
43098;SDS011;28715;51.988;6.020;2022-10-31T05:11:01;65.40;;;31.87;;
43098;SDS011;28715;51.988;6.020;2022-10-31T05:13:27;60.28;;;31.38;;
43098;SDS011;28715;51.988;6.020;2022-10-31T05:15:53;52.92;;;27.35;;
43098;SDS011;28715;51.988;6.020;2022-10-31T05:18:19;62.13;;;28.57;;
43098;SDS011;28715;51.988;6.020;2022-10-31T05:20:45;87.67;;;36.33;;
43098;SDS011;28715;51.988;6.020;2022-10-31T05:23:10;87.93;;;37.77;;
43098;SDS011;28715;51.988;6.020;2022-10-31T05:25:36;69.80;;;33.53;;
43098;SDS011;28715;51.988;6.020;2022-10-31T05:28:02;53.03;;;29.00;;
43098;SDS011;28715;51.988;6.020;2022-10-31T05:30:28;54.53;;;30.07;;
43098;SDS011;28715;51.988;6.020;2022-10-31T05:32:57;63.88;;;31.48;;
43098;SDS011;28715;51.988;6.020;2022-10-31T05:35:29;70.17;;;32.23;;
43098;SDS011;28715;51.988;6.020;2022-10-31T05:37:56;65.00;;;34.08;;
43098;SDS011;28715;51.988;6.020;2022-10-31T05:40:23;94.60;;;41.13;;
43098;SDS011;28715;51.988;6.020;2022-10-31T05:42:50;90.97;;;39.80;;
43098;SDS011;28715;51.988;6.020;2022-10-31T05:45:17;88.55;;;39.03;;
43098;SDS011;28715;51.988;6.020;2022-10-31T05:47:56;84.90;;;39.58;;
43098;SDS011;28715;51.988;6.020;2022-10-31T05:50:23;91.07;;;43.40;;
43098;SDS011;28715;51.988;6.020;2022-10-31T05:52:55;76.97;;;38.70;;
43098;SDS011;28715;51.988;6.020;2022-10-31T05:55:21;81.10;;;38.33;;
43098;SDS011;28715;51.988;6.020;2022-10-31T05:57:47;69.30;;;38.43;;
43098;SDS011;28715;51.988;6.020;2022-10-31T06:00:12;83.47;;;39.67;;
43098;SDS011;28715;51.988;6.020;2022-10-31T06:02:38;99.27;;;45.13;;
43098;SDS011;28715;51.988;6.020;2022-10-31T06:05:03;94.80;;;43.33;;
43098;SDS011;28715;51.988;6.020;2022-10-31T06:07:33;95.63;;;43.40;;
43098;SDS011;28715;51.988;6.020;2022-10-31T06:09:59;81.93;;;40.67;;
43098;SDS011;28715;51.988;6.020;2022-10-31T06:12:25;92.10;;;42.58;;
43098;SDS011;28715;51.988;6.020;2022-10-31T06:14:50;330.70;;;65.37;;
43098;SDS011;28715;51.988;6.020;2022-10-31T06:17:16;124.20;;;46.77;;
43098;SDS011;28715;51.988;6.020;2022-10-31T06:19:41;86.80;;;36.43;;
43098;SDS011;28715;51.988;6.020;2022-10-31T06:22:07;77.20;;;33.53;;
43098;SDS011;28715;51.988;6.020;2022-10-31T06:24:32;66.37;;;31.60;;
43098;SDS011;28715;51.988;6.020;2022-10-31T06:26:58;72.97;;;34.53;;
43098;SDS011;28715;51.988;6.020;2022-10-31T06:29:24;59.53;;;30.00;;
43098;SDS011;28715;51.988;6.020;2022-10-31T06:31:51;74.03;;;33.97;;
43098;SDS011;28715;51.988;6.020;2022-10-31T06:34:16;123.82;;;42.28;;
43098;SDS011;28715;51.988;6.020;2022-10-31T06:36:42;68.07;;;35.27;;
43098;SDS011;28715;51.988;6.020;2022-10-31T06:39:07;62.97;;;31.67;;
43098;SDS011;28715;51.988;6.020;2022-10-31T06:41:33;52.33;;;27.73;;
43098;SDS011;28715;51.988;6.020;2022-10-31T06:43:58;57.53;;;28.37;;
43098;SDS011;28715;51.988;6.020;2022-10-31T06:46:24;63.87;;;28.90;;
43098;SDS011;28715;51.988;6.020;2022-10-31T06:48:49;58.90;;;25.97;;
43098;SDS011;28715;51.988;6.020;2022-10-31T06:51:15;79.83;;;32.73;;
43098;SDS011;28715;51.988;6.020;2022-10-31T06:53:40;183.03;;;47.40;;
43098;SDS011;28715;51.988;6.020;2022-10-31T06:56:07;88.93;;;32.17;;
43098;SDS011;28715;51.988;6.020;2022-10-31T06:58:33;242.40;;;38.45;;
43098;SDS011;28715;51.988;6.020;2022-10-31T07:00:59;222.30;;;40.00;;
43098;SDS011;28715;51.988;6.020;2022-10-31T07:03:25;117.18;;;38.00;;
43098;SDS011;28715;51.988;6.020;2022-10-31T07:05:51;112.63;;;36.83;;
43098;SDS011;28715;51.988;6.020;2022-10-31T07:08:16;97.73;;;39.23;;
43098;SDS011;28715;51.988;6.020;2022-10-31T07:10:42;70.40;;;33.97;;
43098;SDS011;28715;51.988;6.020;2022-10-31T07:13:15;82.25;;;38.78;;
43098;SDS011;28715;51.988;6.020;2022-10-31T07:15:41;79.97;;;38.13;;
43098;SDS011;28715;51.988;6.020;2022-10-31T07:18:08;84.55;;;39.45;;
43098;SDS011;28715;51.988;6.020;2022-10-31T07:20:35;75.93;;;37.50;;
43098;SDS011;28715;51.988;6.020;2022-10-31T07:23:02;96.22;;;41.15;;
43098;SDS011;28715;51.988;6.020;2022-10-31T07:25:28;129.88;;;43.63;;
43098;SDS011;28715;51.988;6.020;2022-10-31T07:27:53;135.97;;;46.93;;
43098;SDS011;28715;51.988;6.020;2022-10-31T07:30:19;166.43;;;49.43;;
43098;SDS011;28715;51.988;6.020;2022-10-31T07:32:45;129.57;;;44.70;;
43098;SDS011;28715;51.988;6.020;2022-10-31T07:35:22;162.50;;;43.90;;
43098;SDS011;28715;51.988;6.020;2022-10-31T07:37:48;111.57;;;41.20;;
43098;SDS011;28715;51.988;6.020;2022-10-31T07:40:16;129.20;;;44.70;;
43098;SDS011;28715;51.988;6.020;2022-10-31T07:42:43;109.93;;;43.97;;
43098;SDS011;28715;51.988;6.020;2022-10-31T07:45:13;106.50;;;42.58;;
43098;SDS011;28715;51.988;6.020;2022-10-31T07:47:41;81.53;;;40.03;;
43098;SDS011;28715;51.988;6.020;2022-10-31T07:50:13;205.10;;;48.47;;
43098;SDS011;28715;51.988;6.020;2022-10-31T07:52:40;82.10;;;38.58;;
43098;SDS011;28715;51.988;6.020;2022-10-31T07:55:06;146.73;;;42.47;;
43098;SDS011;28715;51.988;6.020;2022-10-31T07:57:32;279.45;;;58.28;;
43098;SDS011;28715;51.988;6.020;2022-10-31T07:59:58;80.10;;;40.63;;
43098;SDS011;28715;51.988;6.020;2022-10-31T08:02:24;57.90;;;35.30;;
43098;SDS011;28715;51.988;6.020;2022-10-31T08:04:50;88.88;;;38.83;;
43098;SDS011;28715;51.988;6.020;2022-10-31T08:07:16;166.57;;;46.27;;
43098;SDS011;28715;51.988;6.020;2022-10-31T08:09:42;63.63;;;34.42;;
43098;SDS011;28715;51.988;6.020;2022-10-31T08:12:07;38.10;;;27.63;;
43098;SDS011;28715;51.988;6.020;2022-10-31T08:14:33;31.70;;;24.07;;
43098;SDS011;28715;51.988;6.020;2022-10-31T08:16:59;31.77;;;22.27;;
43098;SDS011;28715;51.988;6.020;2022-10-31T08:19:24;26.77;;;21.37;;
43098;SDS011;28715;51.988;6.020;2022-10-31T08:21:50;27.13;;;20.43;;
43098;SDS011;28715;51.988;6.020;2022-10-31T08:24:16;30.65;;;21.40;;
43098;SDS011;28715;51.988;6.020;2022-10-31T08:26:42;32.97;;;22.97;;
43098;SDS011;28715;51.988;6.020;2022-10-31T08:29:08;27.50;;;20.23;;
43098;SDS011;28715;51.988;6.020;2022-10-31T08:31:33;25.57;;;18.83;;
43098;SDS011;28715;51.988;6.020;2022-10-31T08:33:59;23.93;;;16.97;;
43098;SDS011;28715;51.988;6.020;2022-10-31T08:36:25;25.77;;;17.97;;
43098;SDS011;28715;51.988;6.020;2022-10-31T08:38:51;19.90;;;16.67;;
43098;SDS011;28715;51.988;6.020;2022-10-31T08:41:17;22.50;;;15.83;;
43098;SDS011;28715;51.988;6.020;2022-10-31T08:43:42;19.53;;;14.37;;
43098;SDS011;28715;51.988;6.020;2022-10-31T08:46:09;21.10;;;14.63;;
43098;SDS011;28715;51.988;6.020;2022-10-31T08:48:34;19.13;;;14.90;;
43098;SDS011;28715;51.988;6.020;2022-10-31T08:51:00;21.17;;;15.70;;
43098;SDS011;28715;51.988;6.020;2022-10-31T08:53:26;22.00;;;15.30;;
43098;SDS011;28715;51.988;6.020;2022-10-31T08:55:53;19.47;;;14.37;;
43098;SDS011;28715;51.988;6.020;2022-10-31T08:58:20;19.25;;;14.10;;
43098;SDS011;28715;51.988;6.020;2022-10-31T09:00:47;18.97;;;14.00;;
43098;SDS011;28715;51.988;6.020;2022-10-31T09:03:16;19.52;;;14.45;;
43098;SDS011;28715;51.988;6.020;2022-10-31T09:05:47;19.43;;;14.67;;
43098;SDS011;28715;51.988;6.020;2022-10-31T09:08:14;27.67;;;16.07;;
43098;SDS011;28715;51.988;6.020;2022-10-31T09:10:40;18.37;;;14.73;;
43098;SDS011;28715;51.988;6.020;2022-10-31T09:13:16;21.90;;;16.27;;
43098;SDS011;28715;51.988;6.020;2022-10-31T09:15:44;23.07;;;16.33;;
43098;SDS011;28715;51.988;6.020;2022-10-31T09:18:12;27.70;;;16.63;;
43098;SDS011;28715;51.988;6.020;2022-10-31T09:20:39;22.43;;;16.70;;
43098;SDS011;28715;51.988;6.020;2022-10-31T09:23:06;24.77;;;17.33;;
43098;SDS011;28715;51.988;6.020;2022-10-31T09:25:34;21.35;;;15.80;;
43098;SDS011;28715;51.988;6.020;2022-10-31T09:28:01;21.30;;;15.90;;
43098;SDS011;28715;51.988;6.020;2022-10-31T09:30:28;22.03;;;16.50;;
43098;SDS011;28715;51.988;6.020;2022-10-31T09:32:59;23.77;;;16.83;;
43098;SDS011;28715;51.988;6.020;2022-10-31T09:35:27;25.90;;;18.47;;
43098;SDS011;28715;51.988;6.020;2022-10-31T09:37:53;26.10;;;18.20;;
43098;SDS011;28715;51.988;6.020;2022-10-31T09:40:20;27.37;;;19.03;;
43098;SDS011;28715;51.988;6.020;2022-10-31T09:51:12;33.73;;;22.07;;
43098;SDS011;28715;51.988;6.020;2022-10-31T09:53:44;34.43;;;23.47;;
43098;SDS011;28715;51.988;6.020;2022-10-31T09:56:17;34.20;;;22.97;;
43098;SDS011;28715;51.988;6.020;2022-10-31T09:58:46;34.08;;;22.73;;
43098;SDS011;28715;51.988;6.020;2022-10-31T10:01:29;34.93;;;23.23;;
43098;SDS011;28715;51.988;6.020;2022-10-31T10:04:29;33.20;;;23.15;;
43098;SDS011;28715;51.988;6.020;2022-10-31T10:10:20;37.30;;;24.83;;
43098;SDS011;28715;51.988;6.020;2022-10-31T10:18:36;35.27;;;24.93;;
43098;SDS011;28715;51.988;6.020;2022-10-31T10:21:19;36.97;;;24.27;;
43098;SDS011;28715;51.988;6.020;2022-10-31T10:24:03;40.10;;;26.90;;
43098;SDS011;28715;51.988;6.020;2022-10-31T10:27:05;37.70;;;24.23;;
43098;SDS011;28715;51.988;6.020;2022-10-31T10:32:49;31.50;;;21.97;;
43098;SDS011;28715;51.988;6.020;2022-10-31T10:35:24;33.60;;;20.73;;
43098;SDS011;28715;51.988;6.020;2022-10-31T10:38:18;34.07;;;20.43;;
43098;SDS011;28715;51.988;6.020;2022-10-31T10:40:45;30.83;;;20.40;;
43098;SDS011;28715;51.988;6.020;2022-10-31T10:43:22;33.37;;;21.43;;
43098;SDS011;28715;51.988;6.020;2022-10-31T10:45:50;37.33;;;22.27;;
43098;SDS011;28715;51.988;6.020;2022-10-31T10:51:40;35.77;;;21.97;;
43098;SDS011;28715;51.988;6.020;2022-10-31T10:59:45;36.20;;;22.90;;
43098;SDS011;28715;51.988;6.020;2022-10-31T11:02:22;35.23;;;22.27;;
43098;SDS011;28715;51.988;6.020;2022-10-31T11:04:51;37.45;;;23.05;;
43098;SDS011;28715;51.988;6.020;2022-10-31T11:07:18;34.50;;;22.42;;
43098;SDS011;28715;51.988;6.020;2022-10-31T11:09:44;34.50;;;21.93;;
43098;SDS011;28715;51.988;6.020;2022-10-31T11:12:21;39.07;;;23.03;;
43098;SDS011;28715;51.988;6.020;2022-10-31T11:14:53;34.90;;;21.33;;
43098;SDS011;28715;51.988;6.020;2022-10-31T11:17:39;34.93;;;22.17;;
43098;SDS011;28715;51.988;6.020;2022-10-31T11:20:16;39.17;;;23.43;;
43098;SDS011;28715;51.988;6.020;2022-10-31T11:23:02;36.97;;;23.03;;
43098;SDS011;28715;51.988;6.020;2022-10-31T11:28:31;44.13;;;23.52;;
43098;SDS011;28715;51.988;6.020;2022-10-31T11:31:01;41.92;;;25.70;;
43098;SDS011;28715;51.988;6.020;2022-10-31T11:33:37;39.73;;;24.27;;
43098;SDS011;28715;51.988;6.020;2022-10-31T11:38:47;40.13;;;25.93;;
43098;SDS011;28715;51.988;6.020;2022-10-31T11:41:15;40.10;;;24.70;;
43098;SDS011;28715;51.988;6.020;2022-10-31T11:43:59;47.73;;;27.03;;
43098;SDS011;28715;51.988;6.020;2022-10-31T11:46:32;44.87;;;26.53;;
43098;SDS011;28715;51.988;6.020;2022-10-31T11:49:01;41.40;;;25.37;;
43098;SDS011;28715;51.988;6.020;2022-10-31T11:51:34;41.17;;;26.07;;
43098;SDS011;28715;51.988;6.020;2022-10-31T11:54:01;39.43;;;25.07;;
43098;SDS011;28715;51.988;6.020;2022-10-31T11:56:38;40.00;;;24.03;;
43098;SDS011;28715;51.988;6.020;2022-10-31T11:59:05;41.47;;;25.20;;
43098;SDS011;28715;51.988;6.020;2022-10-31T12:01:56;42.57;;;24.67;;
43098;SDS011;28715;51.988;6.020;2022-10-31T12:04:29;40.90;;;24.77;;
43098;SDS011;28715;51.988;6.020;2022-10-31T12:06:59;40.23;;;24.33;;
43098;SDS011;28715;51.988;6.020;2022-10-31T12:09:27;38.83;;;24.70;;
43098;SDS011;28715;51.988;6.020;2022-10-31T12:15:18;38.87;;;24.97;;
43098;SDS011;28715;51.988;6.020;2022-10-31T12:18:05;43.73;;;26.70;;
43098;SDS011;28715;51.988;6.020;2022-10-31T12:40:53;50.90;;;28.63;;
43098;SDS011;28715;51.988;6.020;2022-10-31T12:46:02;47.63;;;27.90;;
43098;SDS011;28715;51.988;6.020;2022-10-31T12:51:26;45.53;;;27.20;;
43098;SDS011;28715;51.988;6.020;2022-10-31T12:54:29;48.77;;;27.33;;
43098;SDS011;28715;51.988;6.020;2022-10-31T12:57:22;43.80;;;27.10;;
43098;SDS011;28715;51.988;6.020;2022-10-31T12:59:53;44.20;;;25.73;;
43098;SDS011;28715;51.988;6.020;2022-10-31T13:02:33;45.97;;;27.33;;
43098;SDS011;28715;51.988;6.020;2022-10-31T13:11:08;41.03;;;24.60;;
43098;SDS011;28715;51.988;6.020;2022-10-31T13:13:48;44.50;;;25.40;;
43098;SDS011;28715;51.988;6.020;2022-10-31T13:16:20;48.93;;;25.70;;
43098;SDS011;28715;51.988;6.020;2022-10-31T13:18:54;43.70;;;25.40;;
43098;SDS011;28715;51.988;6.020;2022-10-31T13:22:27;44.40;;;25.90;;
43098;SDS011;28715;51.988;6.020;2022-10-31T13:24:35;44.83;;;24.90;;
43098;SDS011;28715;51.988;6.020;2022-10-31T13:27:18;48.60;;;25.47;;
43098;SDS011;28715;51.988;6.020;2022-10-31T13:30:33;43.37;;;23.77;;
43098;SDS011;28715;51.988;6.020;2022-10-31T13:32:42;41.47;;;24.30;;
43098;SDS011;28715;51.988;6.020;2022-10-31T13:35:37;40.37;;;24.80;;
43098;SDS011;28715;51.988;6.020;2022-10-31T13:43:30;50.07;;;26.67;;
43098;SDS011;28715;51.988;6.020;2022-10-31T13:46:24;42.40;;;24.27;;
43098;SDS011;28715;51.988;6.020;2022-10-31T13:48:56;41.37;;;23.93;;
43098;SDS011;28715;51.988;6.020;2022-10-31T13:51:28;46.83;;;25.37;;
43098;SDS011;28715;51.988;6.020;2022-10-31T13:56:21;44.73;;;25.30;;
43098;SDS011;28715;51.988;6.020;2022-10-31T13:59:21;44.27;;;24.83;;
43098;SDS011;28715;51.988;6.020;2022-10-31T14:01:51;40.70;;;22.77;;
43098;SDS011;28715;51.988;6.020;2022-10-31T14:09:19;43.67;;;24.70;;
43098;SDS011;28715;51.988;6.020;2022-10-31T14:11:57;43.37;;;24.03;;
43098;SDS011;28715;51.988;6.020;2022-10-31T14:14:28;45.88;;;25.17;;
43098;SDS011;28715;51.988;6.020;2022-10-31T14:16:58;45.87;;;25.23;;
43098;SDS011;28715;51.988;6.020;2022-10-31T14:19:24;41.87;;;24.30;;
43098;SDS011;28715;51.988;6.020;2022-10-31T14:21:50;37.57;;;22.10;;
43098;SDS011;28715;51.988;6.020;2022-10-31T14:29:26;37.63;;;23.97;;
43098;SDS011;28715;51.988;6.020;2022-10-31T14:34:25;52.47;;;28.17;;
43098;SDS011;28715;51.988;6.020;2022-10-31T14:50:04;42.73;;;25.03;;
43098;SDS011;28715;51.988;6.020;2022-10-31T14:52:59;43.53;;;24.47;;
43098;SDS011;28715;51.988;6.020;2022-10-31T14:55:27;48.88;;;25.48;;
43098;SDS011;28715;51.988;6.020;2022-10-31T14:58:00;45.30;;;26.23;;
43098;SDS011;28715;51.988;6.020;2022-10-31T15:00:28;42.63;;;24.33;;
43098;SDS011;28715;51.988;6.020;2022-10-31T15:05:35;46.25;;;24.38;;
43098;SDS011;28715;51.988;6.020;2022-10-31T15:11:16;43.17;;;24.23;;
43098;SDS011;28715;51.988;6.020;2022-10-31T15:13:54;41.63;;;24.10;;
43098;SDS011;28715;51.988;6.020;2022-10-31T15:16:22;43.27;;;25.80;;
43098;SDS011;28715;51.988;6.020;2022-10-31T15:19:00;44.83;;;25.75;;
43098;SDS011;28715;51.988;6.020;2022-10-31T15:21:29;47.10;;;25.98;;
43098;SDS011;28715;51.988;6.020;2022-10-31T15:23:58;49.90;;;27.40;;
43098;SDS011;28715;51.988;6.020;2022-10-31T15:26:32;43.30;;;24.57;;
43098;SDS011;28715;51.988;6.020;2022-10-31T15:29:04;41.93;;;24.80;;
43098;SDS011;28715;51.988;6.020;2022-10-31T15:31:31;45.43;;;26.90;;
43098;SDS011;28715;51.988;6.020;2022-10-31T15:34:05;49.53;;;28.47;;
43098;SDS011;28715;51.988;6.020;2022-10-31T15:36:47;47.17;;;27.10;;
43098;SDS011;28715;51.988;6.020;2022-10-31T15:39:14;43.73;;;25.00;;
43098;SDS011;28715;51.988;6.020;2022-10-31T15:44:35;48.63;;;27.13;;
43098;SDS011;28715;51.988;6.020;2022-10-31T15:47:05;47.27;;;26.07;;
43098;SDS011;28715;51.988;6.020;2022-10-31T15:49:41;42.37;;;25.40;;
43098;SDS011;28715;51.988;6.020;2022-10-31T15:52:18;40.73;;;23.30;;
43098;SDS011;28715;51.988;6.020;2022-10-31T15:54:54;51.88;;;28.33;;
43098;SDS011;28715;51.988;6.020;2022-10-31T15:57:23;45.37;;;26.17;;
43098;SDS011;28715;51.988;6.020;2022-10-31T15:59:51;44.33;;;25.87;;
43098;SDS011;28715;51.988;6.020;2022-10-31T16:02:26;42.23;;;25.70;;
43098;SDS011;28715;51.988;6.020;2022-10-31T16:04:59;46.13;;;26.17;;
43098;SDS011;28715;51.988;6.020;2022-10-31T16:07:26;51.13;;;28.63;;
43098;SDS011;28715;51.988;6.020;2022-10-31T16:09:53;46.60;;;26.70;;
43098;SDS011;28715;51.988;6.020;2022-10-31T16:12:21;45.03;;;26.10;;
43098;SDS011;28715;51.988;6.020;2022-10-31T16:14:48;47.33;;;25.80;;
43098;SDS011;28715;51.988;6.020;2022-10-31T16:17:17;46.20;;;26.53;;
43098;SDS011;28715;51.988;6.020;2022-10-31T16:19:50;42.00;;;25.53;;
43098;SDS011;28715;51.988;6.020;2022-10-31T16:25:11;46.90;;;25.40;;
43098;SDS011;28715;51.988;6.020;2022-10-31T16:27:39;48.97;;;28.03;;
43098;SDS011;28715;51.988;6.020;2022-10-31T16:33:26;52.73;;;29.63;;
43098;SDS011;28715;51.988;6.020;2022-10-31T16:35:58;57.73;;;30.17;;
43098;SDS011;28715;51.988;6.020;2022-10-31T16:38:25;50.90;;;28.23;;
43098;SDS011;28715;51.988;6.020;2022-10-31T16:40:51;53.80;;;29.23;;
43098;SDS011;28715;51.988;6.020;2022-10-31T16:43:18;49.17;;;28.27;;
43098;SDS011;28715;51.988;6.020;2022-10-31T16:45:54;49.93;;;27.43;;
43098;SDS011;28715;51.988;6.020;2022-10-31T16:48:20;50.67;;;27.47;;
43098;SDS011;28715;51.988;6.020;2022-10-31T16:50:48;54.77;;;29.57;;
43098;SDS011;28715;51.988;6.020;2022-10-31T16:53:15;49.60;;;27.50;;
43098;SDS011;28715;51.988;6.020;2022-10-31T16:55:45;47.07;;;27.30;;
43098;SDS011;28715;51.988;6.020;2022-10-31T16:58:18;49.67;;;27.48;;
43098;SDS011;28715;51.988;6.020;2022-10-31T17:00:50;52.17;;;27.47;;
43098;SDS011;28715;51.988;6.020;2022-10-31T17:03:17;50.57;;;28.00;;